Time;durP1;ratioP1;P1;durP2;ratioP2;P2;SDS_P1;SDS_P2;PMS_P1;PMS_P2;Temp;Humidity;BMP_temperature;BMP_pressure;BME280_temperature;BME280_humidity;BME280_pressure;Samples;Min_cycle;Max_cycle;Signal;HPM_P1;HPM_P2
2020/12/18 00:00:55;;;;;;;22.37;8.67;;;;;;;5.90;94.45;102092.25;5087058;28;20474;-80
2020/12/18 00:03:20;;;;;;;18.17;8.73;;;;;;;5.81;94.55;102091.59;5086504;28;20266;-80
2020/12/18 00:05:45;;;;;;;17.92;9.32;;;;;;;5.78;94.49;102101.63;5066735;28;20017;-81
2020/12/18 00:08:11;;;;;;;16.38;8.63;;;;;;;5.75;94.52;102098.88;5085306;28;20027;-80
2020/12/18 00:10:41;;;;;;;23.83;9.70;;;;;;;5.76;94.62;102090.44;5085610;28;20024;-82
2020/12/18 00:13:07;;;;;;;19.20;9.63;;;;;;;5.83;94.55;102092.59;5066010;28;20028;-79
2020/12/18 00:15:32;;;;;;;18.45;9.50;;;;;;;5.82;94.69;102098.47;5065924;28;20052;-78
2020/12/18 00:17:58;;;;;;;18.65;10.63;;;;;;;5.74;95.16;102086.91;5065920;28;20402;-78
2020/12/18 00:20:23;;;;;;;24.23;11.90;;;;;;;5.74;94.96;102081.81;5068404;28;20035;-80
2020/12/18 00:22:48;;;;;;;26.10;10.38;;;;;;;5.73;94.73;102082.59;5068325;28;20020;-78
2020/12/18 00:25:14;;;;;;;20.42;9.57;;;;;;;5.65;94.48;102086.34;5090109;28;20024;-77
2020/12/18 00:27:41;;;;;;;28.92;10.52;;;;;;;5.72;94.79;102079.19;5067410;28;20020;-78
2020/12/18 00:30:08;;;;;;;21.60;11.67;;;;;;;5.71;94.91;102089.28;5089683;28;20039;-78
2020/12/18 00:32:33;;;;;;;22.50;10.07;;;;;;;5.73;94.94;102085.16;5068008;28;20187;-79
2020/12/18 00:34:58;;;;;;;23.07;11.00;;;;;;;5.66;94.77;102093.22;5085051;28;20027;-80
2020/12/18 00:37:24;;;;;;;22.05;10.73;;;;;;;5.67;94.69;102097.53;5087448;28;20274;-78
2020/12/18 00:39:49;;;;;;;20.70;10.93;;;;;;;5.60;95.11;102089.50;5087080;28;20620;-79
2020/12/18 00:42:14;;;;;;;23.77;11.67;;;;;;;5.61;94.99;102090.38;5068529;28;20159;-79
2020/12/18 00:44:39;;;;;;;27.77;12.07;;;;;;;5.63;95.17;102087.13;5067898;28;20024;-79
2020/12/18 00:47:05;;;;;;;29.87;11.20;;;;;;;5.59;95.42;102091.94;5087898;28;20158;-79
2020/12/18 00:49:30;;;;;;;24.07;11.53;;;;;;;5.64;94.94;102088.00;5085367;28;20020;-79
2020/12/18 00:51:55;;;;;;;26.67;12.37;;;;;;;5.71;94.91;102102.03;5062829;28;20350;-78
2020/12/18 00:54:20;;;;;;;28.63;12.13;;;;;;;5.67;94.78;102093.31;5075644;28;20024;-79
2020/12/18 00:56:46;;;;;;;24.83;11.67;;;;;;;5.72;94.60;102091.91;5062777;28;20024;-77
2020/12/18 00:59:11;;;;;;;27.27;12.17;;;;;;;5.60;94.87;102091.16;5084042;28;20328;-77
2020/12/18 01:01:37;;;;;;;28.02;12.15;;;;;;;5.61;95.18;102085.28;5067724;28;20027;-79
2020/12/18 01:04:03;;;;;;;30.02;11.98;;;;;;;5.55;94.94;102083.22;5080457;28;20494;-79
2020/12/18 01:06:28;;;;;;;27.77;12.90;;;;;;;5.56;94.92;102081.56;5066039;28;20028;-79
2020/12/18 01:08:54;;;;;;;25.17;12.33;;;;;;;5.58;95.20;102072.34;5066938;28;20130;-79
2020/12/18 01:11:19;;;;;;;23.37;12.17;;;;;;;5.58;94.89;102074.88;5066628;28;20107;-79
2020/12/18 01:13:44;;;;;;;31.27;12.53;;;;;;;5.58;94.98;102078.31;5082130;28;20294;-79
2020/12/18 01:16:11;;;;;;;23.63;12.63;;;;;;;5.63;94.92;102079.47;5061438;28;20052;-79
2020/12/18 01:18:36;;;;;;;27.67;12.27;;;;;;;5.61;94.90;102077.63;5086898;28;20274;-78
2020/12/18 01:21:02;;;;;;;31.60;13.03;;;;;;;5.65;95.23;102065.94;5084490;28;20073;-78
2020/12/18 01:23:28;;;;;;;23.98;13.77;;;;;;;5.64;95.01;102075.28;5067308;28;20028;-79
2020/12/18 01:25:53;;;;;;;28.92;12.85;;;;;;;5.61;94.82;102069.97;5085266;28;20031;-77
2020/12/18 01:28:18;;;;;;;25.52;12.73;;;;;;;5.66;94.95;102072.81;5072212;28;20028;-79
2020/12/18 01:30:44;;;;;;;27.63;13.38;;;;;;;5.62;95.12;102070.06;5083455;28;20083;-79
2020/12/18 01:33:09;;;;;;;36.75;14.35;;;;;;;5.57;95.09;102068.91;5084315;28;20028;-77
2020/12/18 01:35:34;;;;;;;27.67;13.10;;;;;;;5.61;95.26;102075.97;5065064;28;20047;-79
2020/12/18 01:38:00;;;;;;;31.98;13.45;;;;;;;5.60;95.00;102074.19;5068487;28;20508;-78
2020/12/18 01:40:25;;;;;;;23.98;12.30;;;;;;;5.61;95.08;102077.63;5071053;28;20091;-79
2020/12/18 01:42:50;;;;;;;28.73;14.43;;;;;;;5.60;95.33;102074.19;5085394;28;20020;-79
2020/12/18 01:45:16;;;;;;;34.05;14.15;;;;;;;5.69;95.02;102080.66;5065409;28;20020;-78
2020/12/18 01:47:42;;;;;;;28.10;12.88;;;;;;;5.58;95.19;102073.22;5063927;28;20577;-78
2020/12/18 01:50:07;;;;;;;34.92;13.70;;;;;;;5.65;94.85;102082.13;5063897;28;20066;-78
2020/12/18 01:52:34;;;;;;;29.15;12.77;;;;;;;5.65;95.33;102074.47;5064715;28;20027;-78
2020/12/18 01:55:03;;;;;;;33.15;13.75;;;;;;;5.62;95.25;102082.81;5065518;28;20020;-79
2020/12/18 01:57:28;;;;;;;31.83;13.63;;;;;;;5.72;95.42;102093.59;5084382;28;20407;-78
2020/12/18 01:59:53;;;;;;;27.53;13.53;;;;;;;5.61;95.08;102085.28;5066249;28;20119;-79
2020/12/18 02:02:19;;;;;;;35.00;14.30;;;;;;;5.59;95.22;102082.63;5067634;28;20309;-79
2020/12/18 02:04:47;;;;;;;25.40;13.50;;;;;;;5.61;95.12;102082.72;5085397;28;20502;-79
2020/12/18 02:07:13;;;;;;;28.97;13.83;;;;;;;5.56;95.25;102079.00;5065283;28;20477;-80
2020/12/18 02:09:39;;;;;;;26.53;12.97;;;;;;;5.65;95.36;102088.91;5087349;28;20600;-79
2020/12/18 02:12:05;;;;;;;;;;;;;;;5.60;95.22;102079.28;5063945;28;20024;-78
2020/12/18 02:14:30;;;;;;;33.17;13.47;;;;;;;5.61;95.18;102077.63;5066454;28;19919;-79
2020/12/18 02:16:56;;;;;;;28.30;12.90;;;;;;;5.59;95.26;102069.00;5068304;28;20112;-81
2020/12/18 02:19:24;;;;;;;27.90;12.38;;;;;;;5.55;95.44;102065.38;5088988;28;20482;-78
2020/12/18 02:21:49;;;;;;;33.17;14.30;;;;;;;5.51;95.35;102068.50;5087357;28;20359;-79
2020/12/18 02:24:26;;;;;;;26.25;13.88;;;;;;;5.48;95.46;102063.19;5071660;28;20077;-79
2020/12/18 02:26:54;;;;;;;27.35;12.88;;;;;;;5.48;95.29;102064.88;5069053;28;20024;-79
2020/12/18 02:29:20;;;;;;;33.20;13.10;;;;;;;5.45;95.36;102065.56;5089544;28;20038;-79
2020/12/18 02:31:49;;;;;;;31.23;12.13;;;;;;;5.44;95.36;102055.28;5091440;28;20116;-79
2020/12/18 02:34:25;;;;;;;26.13;12.80;;;;;;;5.40;95.54;102056.75;5069468;28;20025;-79
2020/12/18 02:36:51;;;;;;;32.00;14.27;;;;;;;5.44;95.39;102057.81;5069924;28;20486;-78
2020/12/18 02:39:16;;;;;;;35.35;14.00;;;;;;;5.39;95.50;102057.53;5087847;28;20035;-78
2020/12/18 02:41:41;;;;;;;33.08;14.48;;;;;;;5.32;95.51;102053.72;5087596;28;20025;-79
2020/12/18 02:44:07;;;;;;;30.10;13.27;;;;;;;5.34;95.67;102058.91;5090616;28;20024;-79
2020/12/18 02:46:32;;;;;;;33.05;13.20;;;;;;;5.34;95.57;102050.38;5071341;28;20456;-79
2020/12/18 02:48:58;;;;;;;29.70;12.57;;;;;;;5.26;95.87;102048.22;5086220;28;20097;-78
2020/12/18 02:51:23;;;;;;;29.17;12.70;;;;;;;5.23;95.84;102047.16;5066539;28;20035;-79
2020/12/18 02:53:48;;;;;;;36.83;13.37;;;;;;;5.22;95.96;102047.94;5092980;28;20032;-80
2020/12/18 02:56:23;;;;;;;34.80;13.75;;;;;;;5.27;95.85;102038.94;5069751;28;20270;-79
2020/12/18 02:58:48;;;;;;;30.43;13.80;;;;;;;5.31;96.06;102043.44;5087281;28;20024;-79
2020/12/18 03:01:13;;;;;;;28.90;13.53;;;;;;;5.31;96.00;102035.78;5088488;28;20074;-79
2020/12/18 03:03:38;;;;;;;29.42;13.48;;;;;;;5.24;95.83;102041.28;5069709;28;20047;-79
2020/12/18 03:06:04;;;;;;;32.93;13.80;;;;;;;5.23;95.96;102034.41;5071505;28;20044;-77
2020/12/18 03:08:29;;;;;;;34.13;14.23;;;;;;;5.23;95.99;102035.31;5085767;28;20748;-78
2020/12/18 03:10:54;;;;;;;31.48;12.95;;;;;;;5.18;95.94;102041.75;5086062;28;20024;-77
2020/12/18 03:13:20;;;;;;;30.60;13.80;;;;;;;5.21;95.83;102039.41;5085472;28;20035;-79
2020/12/18 03:15:45;;;;;;;30.17;13.20;;;;;;;5.19;95.99;102038.41;5087936;28;20112;-80
2020/12/18 03:18:10;;;;;;;34.63;13.50;;;;;;;5.18;95.70;102043.41;5068730;28;20719;-78
2020/12/18 03:20:35;;;;;;;26.50;13.30;;;;;;;5.13;96.19;102042.22;5071056;28;20107;-78
2020/12/18 03:23:01;;;;;;;36.00;14.20;;;;;;;5.16;95.75;102037.34;5082867;28;20371;-79
2020/12/18 03:25:26;;;;;;;38.50;15.13;;;;;;;5.18;95.93;102046.84;5068625;28;20017;-80
2020/12/18 03:27:51;;;;;;;38.50;14.40;;;;;;;5.10;96.18;102047.13;5089422;28;20450;-79
2020/12/18 03:30:16;;;;;;;38.33;14.73;;;;;;;5.13;95.97;102047.31;5087563;28;20266;-80
2020/12/18 03:32:42;;;;;;;36.57;16.17;;;;;;;5.17;96.22;102039.97;5066295;28;20385;-78
2020/12/18 03:35:07;;;;;;;36.10;13.95;;;;;;;5.14;96.11;102041.44;5072781;28;20028;-78
2020/12/18 03:37:33;;;;;;;33.73;16.00;;;;;;;5.19;96.10;102032.44;5069607;28;20478;-79
2020/12/18 03:39:58;;;;;;;40.72;15.18;;;;;;;5.21;96.35;102036.88;5069437;28;20278;-80
2020/12/18 03:42:24;;;;;;;40.90;15.38;;;;;;;5.19;96.06;102035.84;5086312;28;20023;-80
2020/12/18 03:44:49;;;;;;;35.03;14.90;;;;;;;5.18;95.99;102036.66;5067059;28;20020;-79
2020/12/18 03:47:14;;;;;;;41.13;14.00;;;;;;;5.15;96.27;102035.56;5072215;28;20357;-79
2020/12/18 03:49:39;;;;;;;33.63;14.43;;;;;;;5.16;96.29;102038.22;5087151;28;20477;-79
2020/12/18 03:52:05;;;;;;;35.07;15.77;;;;;;;5.18;96.46;102025.56;5084485;28;20127;-78
2020/12/18 03:54:30;;;;;;;39.20;14.73;;;;;;;5.19;96.53;102024.78;5068980;28;20266;-80
2020/12/18 03:56:55;;;;;;;42.75;16.85;;;;;;;5.20;96.48;102029.09;5065857;28;20305;-78
2020/12/18 03:59:21;;;;;;;41.97;15.97;;;;;;;5.26;96.50;102029.53;5066916;28;20182;-80
2020/12/18 04:01:46;;;;;;;40.42;16.45;;;;;;;5.29;96.50;102029.72;5108930;22;20032;-77
2020/12/18 04:04:11;;;;;;;33.63;15.03;;;;;;;5.31;96.23;102023.03;5091880;28;20039;-78
2020/12/18 04:06:36;;;;;;;44.30;16.33;;;;;;;5.36;96.54;102011.47;5112785;27;20261;-79
2020/12/18 04:09:02;;;;;;;35.72;15.40;;;;;;;5.35;96.54;102012.25;5126958;27;20031;-78
2020/12/18 04:11:28;;;;;;;39.13;15.23;;;;;;;5.38;96.38;102022.66;5125474;27;20440;-79
2020/12/18 04:13:53;;;;;;;41.53;15.50;;;;;;;5.40;96.46;102015.09;5094468;28;20023;-79
2020/12/18 04:16:18;;;;;;;42.42;15.93;;;;;;;5.48;96.23;102024.97;5112609;28;20039;-78
2020/12/18 04:18:43;;;;;;;36.07;15.77;;;;;;;5.48;96.12;102019.88;5112623;28;20050;-78
2020/12/18 04:21:09;;;;;;;35.33;15.35;;;;;;;5.53;96.25;102004.91;5113233;28;20079;-78
2020/12/18 04:23:36;;;;;;;39.50;15.87;;;;;;;5.54;96.36;102011.75;5112623;28;20360;-78
2020/12/18 04:26:01;;;;;;;36.33;15.97;;;;;;;5.53;96.40;102004.91;5094250;28;20020;-78
2020/12/18 04:28:26;;;;;;;43.17;14.80;;;;;;;5.50;96.20;102000.47;5112817;28;20027;-78
2020/12/18 04:30:52;;;;;;;42.03;16.13;;;;;;;5.58;96.18;102000.97;5094077;28;20345;-79
2020/12/18 04:33:17;;;;;;;44.57;15.53;;;;;;;5.57;96.11;102001.75;5112560;28;20055;-78
2020/12/18 04:35:42;;;;;;;28.65;13.80;;;;;;;5.60;96.28;101992.63;5094046;28;20065;-77
2020/12/18 04:38:12;;;;;;;35.50;13.87;;;;;;;5.59;96.06;101990.88;5093465;28;20081;-79
2020/12/18 04:40:38;;;;;;;32.17;13.03;;;;;;;5.60;95.96;101984.09;5112476;28;20280;-77
2020/12/18 04:43:04;;;;;;;33.70;14.00;;;;;;;5.56;95.88;101985.59;5112388;28;20016;-77
2020/12/18 04:45:29;;;;;;;35.97;14.80;;;;;;;5.58;96.10;101985.69;5094215;28;20035;-79
2020/12/18 04:47:57;;;;;;;39.20;15.27;;;;;;;5.56;95.98;101975.38;5094630;28;20104;-79
2020/12/18 04:50:24;;;;;;;35.77;14.57;;;;;;;5.51;96.03;101975.88;5112835;28;20020;-76
2020/12/18 04:52:55;;;;;;;31.07;13.00;;;;;;;5.54;95.98;101976.97;5112185;28;20150;-79
2020/12/18 04:55:25;;;;;;;32.30;13.10;;;;;;;5.52;95.97;101978.50;5112179;28;20034;-78
2020/12/18 04:57:51;;;;;;;28.87;12.83;;;;;;;5.55;96.03;101967.66;5112187;28;20030;-78
2020/12/18 05:00:18;;;;;;;32.50;12.43;;;;;;;5.53;95.69;101970.09;5093738;28;20557;-77
2020/12/18 05:02:45;;;;;;;34.33;13.10;;;;;;;5.51;95.88;101966.56;5111938;28;20397;-78
2020/12/18 05:05:10;;;;;;;28.50;12.10;;;;;;;5.53;95.89;101959.91;5094174;28;20020;-78
2020/12/18 05:07:36;;;;;;;28.83;11.93;;;;;;;5.48;96.10;101963.81;5093891;28;20034;-78
2020/12/18 05:10:05;;;;;;;26.65;11.45;;;;;;;5.46;95.98;101961.97;5112003;28;20405;-78
2020/12/18 05:12:31;;;;;;;34.40;11.57;;;;;;;5.51;95.91;101961.44;5093220;28;20031;-77
2020/12/18 05:14:56;;;;;;;39.08;12.27;;;;;;;5.46;95.70;101964.50;5093603;28;20076;-77
2020/12/18 05:17:21;;;;;;;33.37;12.20;;;;;;;5.41;95.71;101964.22;5112130;28;20027;-79
2020/12/18 05:19:46;;;;;;;30.10;11.83;;;;;;;5.39;96.21;101960.72;5093797;28;20341;-77
2020/12/18 05:22:13;;;;;;;32.97;11.70;;;;;;;5.41;95.96;101956.59;5093772;28;20020;-78
2020/12/18 05:24:41;;;;;;;28.23;12.57;;;;;;;5.39;96.13;101968.34;5093508;28;20030;-79
2020/12/18 05:27:08;;;;;;;30.90;12.50;;;;;;;5.41;95.96;101956.59;5093659;28;20031;-78
2020/12/18 05:29:37;;;;;;;31.07;12.67;;;;;;;5.43;96.24;101955.00;5111884;28;20027;-78
2020/12/18 05:32:03;;;;;;;30.23;12.83;;;;;;;5.37;96.11;101949.53;5111710;28;20489;-78
2020/12/18 05:34:28;;;;;;;38.22;13.20;;;;;;;5.46;96.29;101950.09;5112061;28;20080;-78
2020/12/18 05:36:55;;;;;;;28.38;12.45;;;;;;;5.46;96.10;101947.56;5112102;28;20469;-77
2020/12/18 05:39:20;;;;;;;;;;;;;;;5.46;96.20;101946.66;5112244;28;20023;-78
2020/12/18 05:41:59;;;;;;;28.63;12.57;;;;;;;5.48;95.92;101943.44;5111405;28;20417;-77
2020/12/18 05:44:26;;;;;;;27.40;12.80;;;;;;;5.45;96.05;101940.69;5093387;28;20541;-78
2020/12/18 05:46:52;;;;;;;32.70;13.20;;;;;;;5.48;96.19;101940.00;5093426;28;20023;-78
2020/12/18 05:49:28;;;;;;;34.13;13.13;;;;;;;5.47;96.10;101939.13;5114307;28;20721;-77
2020/12/18 05:51:53;;;;;;;35.53;13.77;;;;;;;5.55;95.86;101934.50;5115855;28;20084;-78
2020/12/18 05:54:19;;;;;;;30.43;14.03;;;;;;;5.53;96.00;101933.53;5115990;28;20027;-79
2020/12/18 05:56:47;;;;;;;34.40;13.57;;;;;;;5.51;95.74;101930.88;5116258;28;20111;-76
2020/12/18 05:59:15;;;;;;;27.17;11.57;;;;;;;5.53;96.05;101938.63;5115542;28;20115;-78
2020/12/18 06:01:45;;;;;;;24.33;10.37;;;;;;;5.52;95.88;101953.03;5115301;28;20024;-76
2020/12/18 06:04:12;;;;;;;29.40;11.97;;;;;;;5.48;95.80;101956.16;5115585;28;20106;-78
2020/12/18 06:06:42;;;;;;;30.40;11.47;;;;;;;5.47;95.74;101961.16;5116048;28;20032;-77
2020/12/18 06:09:08;;;;;;;23.47;10.97;;;;;;;5.43;96.07;101964.31;5115650;28;20065;-76
2020/12/18 06:11:35;;;;;;;30.00;11.23;;;;;;;5.45;96.14;101955.09;5097451;28;20024;-78
2020/12/18 06:14:02;;;;;;;26.37;10.83;;;;;;;5.51;95.89;101955.47;5115331;28;20026;-78
2020/12/18 06:16:29;;;;;;;26.13;10.87;;;;;;;5.45;95.78;101950.00;5115448;28;20027;-78
2020/12/18 06:19:02;;;;;;;27.13;11.53;;;;;;;5.46;96.00;101951.78;5115368;28;20031;-76
2020/12/18 06:21:28;;;;;;;22.77;10.67;;;;;;;5.54;96.06;101955.69;5097243;28;20044;-77
2020/12/18 06:23:54;;;;;;;28.23;11.80;;;;;;;5.66;96.30;101951.34;5115985;28;20544;-80
2020/12/18 06:26:20;;;;;;;22.77;12.35;;;;;;;5.69;96.05;101950.63;5097023;28;20273;-78
2020/12/18 06:28:46;;;;;;;32.77;12.23;;;;;;;5.71;96.05;101952.50;5096734;28;20023;-78
2020/12/18 06:31:25;;;;;;;25.23;13.00;;;;;;;5.77;95.75;101944.31;5097080;28;20499;-77
2020/12/18 06:33:59;;;;;;;25.50;12.70;;;;;;;5.82;95.62;101942.94;5115048;28;20023;-78
2020/12/18 06:36:43;;;;;;;31.37;13.67;;;;;;;5.86;95.66;101944.91;5096967;28;20019;-77
2020/12/18 06:39:29;;;;;;;27.07;13.43;;;;;;;5.93;95.36;101949.63;5096992;28;20034;-77
2020/12/18 06:42:17;;;;;;;26.17;13.43;;;;;;;5.96;95.29;101954.91;5096812;28;20092;-78
2020/12/18 06:44:46;;;;;;;30.63;14.97;;;;;;;5.94;95.58;101953.94;5114867;28;20099;-77
2020/12/18 06:47:16;;;;;;;31.87;16.00;;;;;;;5.96;95.37;101946.38;5098191;28;20027;-78
2020/12/18 06:49:57;;;;;;;29.50;14.90;;;;;;;6.03;95.27;101953.59;5099452;28;20016;-77
2020/12/18 06:52:46;;;;;;;32.07;16.20;;;;;;;6.01;95.41;101960.25;5116443;28;20058;-78
2020/12/18 06:55:25;;;;;;;38.83;17.43;;;;;;;6.09;95.10;101969.25;5098998;28;20028;-76
2020/12/18 06:58:05;;;;;;;40.37;17.70;;;;;;;6.12;95.40;101955.00;5096219;28;20028;-78
2020/12/18 07:00:32;;;;;;;33.07;19.20;;;;;;;6.12;95.50;101957.56;5116159;28;20023;-80
2020/12/18 07:02:57;;;;;;;39.70;19.60;;;;;;;6.15;95.12;101956.84;5117537;28;20023;-77
2020/12/18 07:05:40;;;;;;;37.13;19.40;;;;;;;6.15;95.20;101955.19;5098157;28;20022;-78
2020/12/18 07:08:13;;;;;;;44.93;19.90;;;;;;;6.18;95.12;101960.50;5117248;28;20032;-78
2020/12/18 07:10:45;;;;;;;37.00;18.87;;;;;;;6.17;95.09;101966.34;5098445;28;20031;-78
2020/12/18 07:13:16;;;;;;;36.80;18.77;;;;;;;6.16;95.08;101967.16;5117357;28;20034;-78
2020/12/18 07:15:48;;;;;;;42.17;19.47;;;;;;;6.21;95.16;101964.91;5116639;28;20020;-79
2020/12/18 07:18:24;;;;;;;38.63;18.80;;;;;;;6.19;95.18;101962.25;5116904;28;20054;-77
2020/12/18 07:20:55;;;;;;;48.33;20.77;;;;;;;6.22;95.23;101967.53;5098291;28;20045;-78
2020/12/18 07:23:22;;;;;;;44.30;20.57;;;;;;;6.30;95.33;101970.53;5116740;28;20019;-79
2020/12/18 07:25:48;;;;;;;40.57;19.60;;;;;;;6.31;95.17;101967.19;5090392;28;20026;-78
2020/12/18 07:28:15;;;;;;;39.53;20.02;;;;;;;6.40;94.75;101970.28;5088254;28;20081;-78
2020/12/18 07:30:43;;;;;;;40.50;19.47;;;;;;;6.38;94.94;101978.63;5116931;28;20043;-77
2020/12/18 07:33:10;;;;;;;30.80;18.23;;;;;;;6.40;94.90;101983.03;5097269;28;20084;-78
2020/12/18 07:35:41;;;;;;;34.97;17.10;;;;;;;6.42;95.10;101989.09;5098645;28;20424;-78
2020/12/18 07:38:22;;;;;;;30.67;17.87;;;;;;;6.48;94.77;101992.00;5097461;28;20481;-77
2020/12/18 07:40:51;;;;;;;29.87;17.53;;;;;;;6.51;94.70;101992.22;5097477;28;20053;-80
2020/12/18 07:43:17;;;;;;;28.80;15.03;;;;;;;6.61;94.19;101993.63;5097904;28;20031;-78
2020/12/18 07:45:48;;;;;;;30.80;15.32;;;;;;;6.65;94.17;101987.00;5098439;28;20027;-79
2020/12/18 07:48:22;;;;;;;25.53;13.70;;;;;;;6.68;94.10;101992.28;5117403;28;20054;-79
2020/12/18 07:51:01;;;;;;;34.10;14.53;;;;;;;6.72;93.83;101989.13;5097950;28;20026;-79
2020/12/18 07:53:32;;;;;;;23.03;12.97;;;;;;;6.77;93.82;101986.03;5097048;28;20020;-79
2020/12/18 07:56:16;;;;;;;31.47;14.13;;;;;;;6.78;93.50;101982.69;5115142;28;20594;-77
2020/12/18 07:58:49;;;;;;;26.70;13.97;;;;;;;6.81;93.66;101987.97;5116993;28;20051;-77
2020/12/18 08:01:22;;;;;;;27.93;13.27;;;;;;;6.82;93.23;101982.06;5117979;28;20596;-79
2020/12/18 08:03:56;;;;;;;23.23;12.77;;;;;;;6.86;92.99;101978.91;5098900;28;20027;-79
2020/12/18 08:06:29;;;;;;;25.33;13.43;;;;;;;6.87;93.04;101972.13;5118046;28;20027;-78
2020/12/18 08:08:57;;;;;;;28.03;13.17;;;;;;;6.93;92.64;101974.16;5118692;28;20028;-79
2020/12/18 08:11:24;;;;;;;27.60;12.80;;;;;;;6.89;92.75;101982.44;5097246;28;20053;-78
2020/12/18 08:13:50;;;;;;;28.60;13.90;;;;;;;6.85;92.99;101979.72;5117583;28;21353;-78
2020/12/18 08:16:21;;;;;;;26.60;12.32;;;;;;;6.95;92.79;101981.09;5117155;28;20027;-77
2020/12/18 08:18:58;;;;;;;22.83;12.53;;;;;;;6.96;92.49;101979.44;5098663;28;20051;-78
2020/12/18 08:21:36;;;;;;;27.43;12.17;;;;;;;7.01;92.42;101968.66;5097806;28;20407;-78
2020/12/18 08:24:13;;;;;;;21.73;12.10;;;;;;;6.98;92.39;101971.06;5114727;28;20015;-81
2020/12/18 08:26:50;;;;;;;21.47;11.63;;;;;;;7.07;92.11;101980.91;5116558;28;20068;-78
2020/12/18 08:29:18;;;;;;;22.73;11.02;;;;;;;7.11;92.05;101980.28;5096139;28;20027;-79
2020/12/18 08:31:45;;;;;;;24.70;11.30;;;;;;;7.15;91.89;101979.66;5094670;28;20548;-80
2020/12/18 08:34:13;;;;;;;23.17;10.83;;;;;;;7.16;91.57;101967.00;5097890;28;20404;-79
2020/12/18 08:36:43;;;;;;;22.57;10.23;;;;;;;7.21;91.74;101969.78;5096803;28;20394;-79
2020/12/18 08:39:11;;;;;;;18.97;9.77;;;;;;;7.35;90.54;101973.09;5098947;28;20098;-79
2020/12/18 08:41:53;;;;;;;21.33;10.20;;;;;;;7.37;90.30;101971.50;5112284;28;20016;-79
2020/12/18 08:44:21;;;;;;;20.07;9.40;;;;;;;7.35;90.43;101971.41;5095740;28;20024;-78
2020/12/18 08:46:48;;;;;;;19.73;9.27;;;;;;;7.41;90.58;101969.19;5114172;28;20023;-78
2020/12/18 08:49:31;;;;;;;17.60;9.00;;;;;;;7.42;90.51;101975.19;5114484;28;20477;-78
2020/12/18 08:52:03;;;;;;;19.77;8.60;;;;;;;7.49;90.21;101967.94;5095076;28;20149;-79
2020/12/18 08:54:34;;;;;;;18.40;8.50;;;;;;;7.52;90.25;101969.78;5114052;28;20104;-79
2020/12/18 08:57:22;;;;;;;18.37;8.27;;;;;;;7.59;89.80;101968.44;5095713;28;20047;-80
2020/12/18 09:00:18;;;;;;;19.70;9.13;;;;;;;7.64;89.95;101964.44;5094104;28;20031;-78
2020/12/18 09:02:49;;;;;;;20.70;8.87;;;;;;;7.71;89.72;101969.06;5112218;28;20535;-79
2020/12/18 09:05:25;;;;;;;17.07;9.13;;;;;;;7.68;89.92;101956.13;5095572;28;20065;-78
2020/12/18 09:08:01;;;;;;;18.63;9.15;;;;;;;7.74;89.42;101952.22;5114325;28;20230;-78
2020/12/18 09:10:49;;;;;;;22.37;8.63;;;;;;;7.70;89.51;101957.09;5095510;28;20031;-79
2020/12/18 09:13:16;;;;;;;21.93;8.73;;;;;;;7.80;89.67;101954.19;5096078;28;20024;-77
2020/12/18 09:15:44;;;;;;;17.93;9.27;;;;;;;7.83;89.18;101949.28;5096267;28;20575;-78
2020/12/18 09:18:12;;;;;;;16.70;9.60;;;;;;;7.87;89.24;101947.75;5110269;28;20119;-79
2020/12/18 09:20:42;;;;;;;18.57;9.87;;;;;;;7.96;89.26;101946.53;5114122;28;20043;-78
2020/12/18 09:23:16;;;;;;;18.53;9.30;;;;;;;7.92;88.94;101942.06;5095347;28;20084;-78
2020/12/18 09:25:49;;;;;;;21.33;9.10;;;;;;;8.00;88.74;101948.47;5113224;28;20035;-79
2020/12/18 09:28:20;;;;;;;20.90;9.23;;;;;;;7.97;88.91;101955.97;5114028;28;20028;-78
2020/12/18 09:30:52;;;;;;;18.17;9.33;;;;;;;7.93;89.13;101965.97;5096091;28;20024;-78
2020/12/18 09:33:26;;;;;;;17.07;9.57;;;;;;;7.92;89.03;101967.66;5093628;28;20025;-79
2020/12/18 09:35:55;;;;;;;14.80;9.27;;;;;;;7.92;89.27;101970.22;5114189;28;20051;-79
2020/12/18 09:38:31;;;;;;;16.07;8.87;;;;;;;7.94;88.61;101972.84;5095839;28;20024;-78
2020/12/18 09:40:59;;;;;;;19.63;9.65;;;;;;;7.97;89.22;101970.44;5090270;28;20024;-77
2020/12/18 09:43:25;;;;;;;18.60;9.90;;;;;;;7.98;88.93;101967.97;5111750;28;20481;-81
2020/12/18 09:45:51;;;;;;;15.93;9.07;;;;;;;8.02;89.07;101967.31;5094322;28;20032;-79
2020/12/18 09:48:17;;;;;;;;;;;;;;;8.06;88.79;101976.03;5098546;28;20038;-78
2020/12/18 09:50:42;;;;;;;17.23;9.10;;;;;;;8.04;89.28;101978.53;5105558;28;20351;-79
2020/12/18 09:53:08;;;;;;;21.90;9.18;;;;;;;8.07;89.14;101976.13;5102581;28;20023;-79
2020/12/18 09:55:33;;;;;;;14.88;7.95;;;;;;;8.12;88.87;101984.91;5104283;28;20020;-82
2020/12/18 09:58:00;;;;;;;18.63;8.82;;;;;;;8.28;88.48;101980.59;5120896;28;20027;-80
2020/12/18 10:00:26;;;;;;;18.77;7.87;;;;;;;8.34;88.01;101976.69;5120500;28;20042;-82
2020/12/18 10:02:51;;;;;;;14.75;7.32;;;;;;;8.36;88.11;101984.44;5136192;22;20131;-80
2020/12/18 10:05:17;;;;;;;16.15;7.53;;;;;;;8.44;87.96;101975.47;5107365;28;20039;-77
2020/12/18 10:07:42;;;;;;;19.17;6.22;;;;;;;8.79;86.56;101976.38;5088838;28;20048;-79
2020/12/18 10:10:07;;;;;;;14.45;6.35;;;;;;;9.08;84.97;101959.81;5093358;28;20023;-78
2020/12/18 10:12:33;;;;;;;10.52;5.22;;;;;;;9.51;83.27;101957.56;5083057;28;20024;-79
2020/12/18 10:14:58;;;;;;;12.23;5.18;;;;;;;9.84;81.85;101958.22;5085812;28;20031;-79
2020/12/18 10:17:23;;;;;;;13.13;4.87;;;;;;;10.10;80.52;101961.94;5105689;28;20035;-79
2020/12/18 10:19:49;;;;;;;14.82;4.82;;;;;;;10.82;77.65;101938.47;5108922;28;20026;-80
2020/12/18 10:22:14;;;;;;;10.05;4.15;;;;;;;11.14;76.26;101939.72;5091264;28;20030;-79
2020/12/18 10:24:39;;;;;;;11.60;4.30;;;;;;;11.18;75.70;101933.88;5112867;28;20023;-78
2020/12/18 10:27:05;;;;;;;10.40;3.63;;;;;;;11.00;76.28;101927.13;5091982;28;20024;-80
2020/12/18 10:29:30;;;;;;;7.82;3.70;;;;;;;10.40;78.29;101931.53;5085955;28;20554;-79
2020/12/18 10:31:56;;;;;;;11.38;4.18;;;;;;;10.30;79.87;101932.84;5084883;28;20028;-79
2020/12/18 10:34:22;;;;;;;9.43;3.92;;;;;;;10.44;79.01;101918.91;5089620;28;20039;-79
2020/12/18 10:36:53;;;;;;;12.50;4.05;;;;;;;10.43;78.95;101914.59;5091090;28;20481;-78
2020/12/18 10:39:18;;;;;;;14.30;4.38;;;;;;;10.40;79.91;101918.69;5111488;28;20191;-79
2020/12/18 10:41:44;;;;;;;12.43;3.58;;;;;;;10.28;79.19;101916.50;5113751;28;20457;-80
2020/12/18 10:44:09;;;;;;;13.50;4.07;;;;;;;10.08;80.23;101930.16;5108835;28;20030;-78
2020/12/18 10:46:35;;;;;;;7.38;3.40;;;;;;;9.94;80.91;101935.56;5098605;28;20043;-81
2020/12/18 10:49:01;;;;;;;15.95;4.25;;;;;;;9.79;81.53;101922.09;5087574;28;20061;-78
2020/12/18 10:51:26;;;;;;;14.27;5.57;;;;;;;9.79;82.80;101921.22;5107760;28;20028;-81
2020/12/18 10:53:51;;;;;;;13.13;4.60;;;;;;;10.36;80.64;101910.00;5090178;28;20058;-80
2020/12/18 10:56:17;;;;;;;14.68;4.13;;;;;;;11.33;77.74;101886.41;5092290;28;20019;-80
2020/12/18 10:58:42;;;;;;;10.48;3.15;;;;;;;12.70;72.95;101870.59;5111009;28;20389;-82
2020/12/18 11:01:07;;;;;;;8.43;3.27;;;;;;;13.89;68.68;101862.03;5113804;28;20020;-80
2020/12/18 11:03:32;;;;;;;9.43;2.83;;;;;;;14.28;65.99;101851.81;5097531;28;20364;-80
2020/12/18 11:06:03;;;;;;;10.80;2.92;;;;;;;14.66;65.36;101846.75;5092671;28;20032;-81
2020/12/18 11:08:28;;;;;;;8.45;2.60;;;;;;;14.88;63.75;101842.91;5115232;28;20443;-80
2020/12/18 11:10:54;;;;;;;11.95;2.90;;;;;;;14.36;64.18;101833.94;5094707;28;20123;-80
2020/12/18 11:13:19;;;;;;;7.75;2.50;;;;;;;14.59;63.33;101845.72;5092497;28;20478;-81
2020/12/18 11:15:44;;;;;;;;;;;;;;;14.40;63.37;101848.69;5096194;28;20082;-82
2020/12/18 11:18:09;;;;;;;9.40;3.03;;;;;;;15.07;61.99;101844.19;5112563;28;19923;-82
2020/12/18 11:20:35;;;;;;;11.25;2.63;;;;;;;15.23;60.92;101854.00;5090441;28;20567;-80
2020/12/18 11:23:00;;;;;;;;;;;;;;;15.00;60.72;101844.91;5095864;28;20031;-82